CSAV Trancura — D5EV9 — position and weather

sailwx.info

Track history (hours):
 
Tides and Currents Weather Stations Pressure Air Temp Water Temp Dewpoint Dewpoint Depression Visibility Wind Speed Wind Dir Waves Ship Positions

CSAV Trancura

Last reported at 2017-Nov-19 14:37 UTC. Time now 2017-Nov-24 20:47 UTC.
Position N 34°53' E 139°22'.

Length 300 m; draft 10.6 m.

Type: Cargo ship. MMSI: 636016177.

Date/timePositionNaut miles runAvg speedWind from/ knotsBaromVisibWave heightAir tempDewpointWater temp
2017-Nov-19 14:37N 34°53' E 139°22'220.3
2017-Nov-19 14:30N 34°54' E 139°24'1020.4
2017-Nov-19 14:00N 34°59' E 139°35'1020.3
2017-Nov-19 13:31N 35°06' E 139°44'714.4
2017-Nov-19 13:01N 35°13' E 139°46'612.1
2017-Nov-19 12:30N 35°18' E 139°44'611.3
2017-Nov-19 12:00N 35°23' E 139°41'1 1.4
2017-Nov-19 11:28N 35°24' E 139°41'0 0.1
2017-Nov-19 10:58N 35°24' E 139°41'0 0.0
2017-Nov-19 10:28N 35°24' E 139°41'0 0.0
2017-Nov-19 09:58N 35°24' E 139°41'0 0.0
2017-Nov-19 09:28N 35°24' E 139°41'0 0.0
2017-Nov-19 08:58N 35°24' E 139°41'0 0.0
2017-Nov-19 08:28N 35°24' E 139°41'0 0.0
2017-Nov-19 07:58N 35°24' E 139°41'0 0.0
2017-Nov-19 07:28N 35°24' E 139°41'0 0.0
2017-Nov-19 06:58N 35°24' E 139°41'0 0.0
2017-Nov-19 06:28N 35°24' E 139°41'0 0.0
2017-Nov-19 05:58N 35°24' E 139°41'0 0.0
2017-Nov-19 05:28N 35°24' E 139°41'0 0.1
2017-Nov-19 04:58N 35°24' E 139°41'0 0.1
2017-Nov-19 04:28N 35°24' E 139°41'0 0.1
2017-Nov-19 03:58N 35°24' E 139°41'0 0.0
2017-Nov-19 03:28N 35°24' E 139°41'0 0.1
2017-Nov-19 02:58N 35°24' E 139°41'0 0.0
2017-Nov-19 02:28N 35°24' E 139°41'0 0.0
2017-Nov-19 01:58N 35°24' E 139°41'0 0.0
2017-Nov-19 01:25N 35°24' E 139°41'0 0.0
2017-Nov-19 00:58N 35°24' E 139°41'0 0.1
2017-Nov-19 00:28N 35°24' E 139°41'0 0.0
2017-Nov-18 23:58N 35°24' E 139°41'0 0.1
2017-Nov-18 23:28N 35°24' E 139°41'0 0.1
2017-Nov-18 23:01N 35°24' E 139°41'1 1.6
2017-Nov-18 22:31N 35°23' E 139°40'4 7.1
2017-Nov-18 22:01N 35°21' E 139°43'611.4
2017-Nov-18 21:30N 35°16' E 139°47'612.2
2017-Nov-18 21:01N 35°10' E 139°47'4 7.4
2017-Nov-18 20:30N 35°06' E 139°45'510.2
2017-Nov-18 20:00N 35°01' E 139°43'510.7
2017-Nov-18 19:30N 34°56' E 139°42'510.4
2017-Nov-18 19:00N 34°51' E 139°43'4 7.8
2017-Nov-18 18:30N 34°49' E 139°48'4 7.4
2017-Nov-18 18:00N 34°48' E 139°52'710.9
2017-Nov-18 17:24N 34°51' E 139°59'512.4
2017-Nov-18 16:59N 34°53' E 140°05'  
Track history (hours):
 
Tides and Currents Weather Stations Pressure Air Temp Water Temp Dewpoint Dewpoint Depression Visibility Wind Speed Wind Dir Waves Ship Positions

CSAV Trancura

Last reported at 2017-Nov-19 14:37 UTC. Time now 2017-Nov-24 20:47 UTC.
Position N 34°53' E 139°22'.

Length 300 m; draft 10.6 m.

Type: Cargo ship. MMSI: 636016177.

Date/timePositionNaut miles runAvg speedWind from/ knotsBaromVisibWave heightAir tempDewpointWater temp
2017-Nov-19 14:37N 34°53' E 139°22'220.3
2017-Nov-19 14:30N 34°54' E 139°24'1020.4
2017-Nov-19 14:00N 34°59' E 139°35'1020.3
2017-Nov-19 13:31N 35°06' E 139°44'714.4
2017-Nov-19 13:01N 35°13' E 139°46'612.1
2017-Nov-19 12:30N 35°18' E 139°44'611.3
2017-Nov-19 12:00N 35°23' E 139°41'1 1.4
2017-Nov-19 11:28N 35°24' E 139°41'0 0.1
2017-Nov-19 10:58N 35°24' E 139°41'0 0.0
2017-Nov-19 10:28N 35°24' E 139°41'0 0.0
2017-Nov-19 09:58N 35°24' E 139°41'0 0.0
2017-Nov-19 09:28N 35°24' E 139°41'0 0.0
2017-Nov-19 08:58N 35°24' E 139°41'0 0.0
2017-Nov-19 08:28N 35°24' E 139°41'0 0.0
2017-Nov-19 07:58N 35°24' E 139°41'0 0.0
2017-Nov-19 07:28N 35°24' E 139°41'0 0.0
2017-Nov-19 06:58N 35°24' E 139°41'0 0.0
2017-Nov-19 06:28N 35°24' E 139°41'0 0.0
2017-Nov-19 05:58N 35°24' E 139°41'0 0.0
2017-Nov-19 05:28N 35°24' E 139°41'0 0.1
2017-Nov-19 04:58N 35°24' E 139°41'0 0.1
2017-Nov-19 04:28N 35°24' E 139°41'0 0.1
2017-Nov-19 03:58N 35°24' E 139°41'0 0.0
2017-Nov-19 03:28N 35°24' E 139°41'0 0.1
2017-Nov-19 02:58N 35°24' E 139°41'0 0.0
2017-Nov-19 02:28N 35°24' E 139°41'0 0.0
2017-Nov-19 01:58N 35°24' E 139°41'0 0.0
2017-Nov-19 01:25N 35°24' E 139°41'0 0.0
2017-Nov-19 00:58N 35°24' E 139°41'0 0.1
2017-Nov-19 00:28N 35°24' E 139°41'0 0.0
2017-Nov-18 23:58N 35°24' E 139°41'0 0.1
2017-Nov-18 23:28N 35°24' E 139°41'0 0.1
2017-Nov-18 23:01N 35°24' E 139°41'1 1.6
2017-Nov-18 22:31N 35°23' E 139°40'4 7.1
2017-Nov-18 22:01N 35°21' E 139°43'611.4
2017-Nov-18 21:30N 35°16' E 139°47'612.2
2017-Nov-18 21:01N 35°10' E 139°47'4 7.4
2017-Nov-18 20:30N 35°06' E 139°45'510.2
2017-Nov-18 20:00N 35°01' E 139°43'510.7
2017-Nov-18 19:30N 34°56' E 139°42'510.4
2017-Nov-18 19:00N 34°51' E 139°43'4 7.8
2017-Nov-18 18:30N 34°49' E 139°48'4 7.4
2017-Nov-18 18:00N 34°48' E 139°52'710.9
2017-Nov-18 17:24N 34°51' E 139°59'512.4
2017-Nov-18 16:59N 34°53' E 140°05'  

Dump ship's entire track history